sensor_id;sensor_type;location;lat;lon;timestamp;pressure;altitude;pressure_sealevel;temperature;humidity
77893;BME280;67087;50.094;14.338;2023-05-10T00:00:53;97608.17;;;25.09;25.98
77893;BME280;67087;50.094;14.338;2023-05-10T00:03:18;97607.63;;;24.96;25.84
77893;BME280;67087;50.094;14.338;2023-05-10T00:05:43;97605.44;;;24.76;25.81
77893;BME280;67087;50.094;14.338;2023-05-10T00:08:08;97605.46;;;24.59;26.02
77893;BME280;67087;50.094;14.338;2023-05-10T00:10:33;97603.33;;;24.94;25.88
77893;BME280;67087;50.094;14.338;2023-05-10T00:12:59;97602.36;;;25.24;25.83
77893;BME280;67087;50.094;14.338;2023-05-10T00:15:24;97600.27;;;25.36;25.69
77893;BME280;67087;50.094;14.338;2023-05-10T00:17:49;97594.68;;;25.17;25.91
77893;BME280;67087;50.094;14.338;2023-05-10T00:20:14;97590.72;;;24.98;25.85
77893;BME280;67087;50.094;14.338;2023-05-10T00:22:39;97591.42;;;25.18;25.94
77893;BME280;67087;50.094;14.338;2023-05-10T00:25:06;97595.28;;;24.96;25.92
77893;BME280;67087;50.094;14.338;2023-05-10T00:27:29;97596.87;;;25.00;25.62
77893;BME280;67087;50.094;14.338;2023-05-10T00:29:55;97594.99;;;25.06;26.09
77893;BME280;67087;50.094;14.338;2023-05-10T00:32:20;97594.63;;;24.66;25.93
77893;BME280;67087;50.094;14.338;2023-05-10T00:34:45;97593.23;;;25.04;26.08
77893;BME280;67087;50.094;14.338;2023-05-10T00:37:10;97589.25;;;24.57;26.04
77893;BME280;67087;50.094;14.338;2023-05-10T00:39:35;97586.37;;;24.86;26.02
77893;BME280;67087;50.094;14.338;2023-05-10T00:42:00;97585.21;;;25.11;25.99
77893;BME280;67087;50.094;14.338;2023-05-10T00:44:25;97585.00;;;24.88;26.00
77893;BME280;67087;50.094;14.338;2023-05-10T00:46:51;97582.32;;;24.84;26.01
77893;BME280;67087;50.094;14.338;2023-05-10T00:49:16;97577.54;;;24.85;26.01
77893;BME280;67087;50.094;14.338;2023-05-10T00:51:41;97574.14;;;25.01;25.81
77893;BME280;67087;50.094;14.338;2023-05-10T00:54:06;97572.81;;;24.71;25.94
77893;BME280;67087;50.094;14.338;2023-05-10T00:56:31;97571.29;;;24.70;26.20
77893;BME280;67087;50.094;14.338;2023-05-10T00:58:56;97571.67;;;24.74;26.14
77893;BME280;67087;50.094;14.338;2023-05-10T01:01:22;97569.41;;;24.79;26.07
77893;BME280;67087;50.094;14.338;2023-05-10T01:03:47;97571.07;;;25.02;26.06
77893;BME280;67087;50.094;14.338;2023-05-10T01:06:12;97567.60;;;24.83;26.09
77893;BME280;67087;50.094;14.338;2023-05-10T01:08:37;97569.04;;;24.99;26.13
77893;BME280;67087;50.094;14.338;2023-05-10T01:11:02;97570.55;;;24.80;26.10
77893;BME280;67087;50.094;14.338;2023-05-10T01:13:36;97571.57;;;24.87;26.03
77893;BME280;67087;50.094;14.338;2023-05-10T01:15:52;97571.07;;;24.76;26.13
77893;BME280;67087;50.094;14.338;2023-05-10T01:18:19;97568.10;;;24.97;26.18
77893;BME280;67087;50.094;14.338;2023-05-10T01:20:45;97565.54;;;24.71;26.18
77893;BME280;67087;50.094;14.338;2023-05-10T01:23:28;97564.02;;;24.19;26.21
77893;BME280;67087;50.094;14.338;2023-05-10T01:28:12;97562.93;;;25.03;26.09
77893;BME280;67087;50.094;14.338;2023-05-10T01:30:35;97558.02;;;25.07;26.07
77893;BME280;67087;50.094;14.338;2023-05-10T01:32:52;97556.88;;;24.75;26.13
77893;BME280;67087;50.094;14.338;2023-05-10T01:35:18;97554.84;;;24.53;26.14
77893;BME280;67087;50.094;14.338;2023-05-10T01:37:42;97551.48;;;24.81;26.08
77893;BME280;67087;50.094;14.338;2023-05-10T01:40:10;97550.41;;;24.86;25.98
77893;BME280;67087;50.094;14.338;2023-05-10T01:42:35;97551.86;;;25.04;26.10
77893;BME280;67087;50.094;14.338;2023-05-10T01:44:58;97549.28;;;25.02;26.13
77893;BME280;67087;50.094;14.338;2023-05-10T01:47:23;97545.10;;;24.84;26.07
77893;BME280;67087;50.094;14.338;2023-05-10T01:49:47;97544.97;;;25.06;26.09
77893;BME280;67087;50.094;14.338;2023-05-10T01:52:12;97545.70;;;24.91;26.00
77893;BME280;67087;50.094;14.338;2023-05-10T01:54:35;97547.19;;;25.21;25.97
77893;BME280;67087;50.094;14.338;2023-05-10T01:57:03;97545.89;;;24.99;26.17
77893;BME280;67087;50.094;14.338;2023-05-10T01:59:27;97542.76;;;24.97;26.18
77893;BME280;67087;50.094;14.338;2023-05-10T02:01:51;97541.72;;;24.96;26.21
77893;BME280;67087;50.094;14.338;2023-05-10T02:04:17;97542.10;;;24.67;26.27
77893;BME280;67087;50.094;14.338;2023-05-10T02:06:42;97545.18;;;24.71;26.18
77893;BME280;67087;50.094;14.338;2023-05-10T02:09:06;97547.48;;;24.87;26.09
77893;BME280;67087;50.094;14.338;2023-05-10T02:11:31;97548.47;;;25.13;26.08
77893;BME280;67087;50.094;14.338;2023-05-10T02:13:56;97547.72;;;24.98;26.23
77893;BME280;67087;50.094;14.338;2023-05-10T02:16:24;97549.54;;;24.92;26.00
77893;BME280;67087;50.094;14.338;2023-05-10T02:18:46;97549.99;;;25.16;26.04
77893;BME280;67087;50.094;14.338;2023-05-10T02:21:12;97547.38;;;24.63;26.10
77893;BME280;67087;50.094;14.338;2023-05-10T02:23:37;97545.96;;;25.16;26.05
77893;BME280;67087;50.094;14.338;2023-05-10T02:26:02;97547.98;;;24.96;26.25
77893;BME280;67087;50.094;14.338;2023-05-10T02:28:27;97548.87;;;24.98;26.26
77893;BME280;67087;50.094;14.338;2023-05-10T02:30:52;97548.79;;;24.88;26.12
77893;BME280;67087;50.094;14.338;2023-05-10T02:33:17;97545.09;;;24.83;26.20
77893;BME280;67087;50.094;14.338;2023-05-10T02:35:42;97543.41;;;24.96;26.28
77893;BME280;67087;50.094;14.338;2023-05-10T02:38:07;97541.71;;;24.64;26.14
77893;BME280;67087;50.094;14.338;2023-05-10T02:40:33;97539.97;;;24.94;26.31
77893;BME280;67087;50.094;14.338;2023-05-10T02:42:59;97539.76;;;25.10;26.16
77893;BME280;67087;50.094;14.338;2023-05-10T02:45:25;97538.62;;;24.81;26.20
77893;BME280;67087;50.094;14.338;2023-05-10T02:47:48;97536.62;;;24.85;26.41
77893;BME280;67087;50.094;14.338;2023-05-10T02:50:13;97536.36;;;24.92;26.33
77893;BME280;67087;50.094;14.338;2023-05-10T02:52:41;97537.24;;;25.00;26.25
77893;BME280;67087;50.094;14.338;2023-05-10T02:55:05;97536.25;;;25.03;26.23
77893;BME280;67087;50.094;14.338;2023-05-10T02:57:31;97535.76;;;24.98;26.30
77893;BME280;67087;50.094;14.338;2023-05-10T02:59:53;97534.85;;;24.71;26.26
77893;BME280;67087;50.094;14.338;2023-05-10T03:02:19;97533.26;;;24.98;26.28
77893;BME280;67087;50.094;14.338;2023-05-10T03:04:44;97531.69;;;24.87;26.38
77893;BME280;67087;50.094;14.338;2023-05-10T03:07:09;97527.35;;;24.50;26.51
77893;BME280;67087;50.094;14.338;2023-05-10T03:09:34;97528.23;;;24.58;26.42
77893;BME280;67087;50.094;14.338;2023-05-10T03:12:02;97524.58;;;24.87;26.40
77893;BME280;67087;50.094;14.338;2023-05-10T03:14:34;97522.68;;;24.95;26.33
77893;BME280;67087;50.094;14.338;2023-05-10T03:16:56;97525.41;;;24.95;26.33
77893;BME280;67087;50.094;14.338;2023-05-10T03:19:24;97523.98;;;24.70;26.33
77893;BME280;67087;50.094;14.338;2023-05-10T03:21:41;97525.13;;;24.88;26.39
77893;BME280;67087;50.094;14.338;2023-05-10T03:24:07;97528.44;;;24.50;26.29
77893;BME280;67087;50.094;14.338;2023-05-10T03:26:30;97526.86;;;24.67;26.36
77893;BME280;67087;50.094;14.338;2023-05-10T03:28:56;97527.30;;;24.65;26.39
77893;BME280;67087;50.094;14.338;2023-05-10T03:31:20;97530.49;;;24.63;26.39
77893;BME280;67087;50.094;14.338;2023-05-10T03:33:47;97537.68;;;24.62;26.41
77893;BME280;67087;50.094;14.338;2023-05-10T03:36:10;97540.68;;;24.87;26.16
77893;BME280;67087;50.094;14.338;2023-05-10T03:38:35;97543.12;;;24.57;26.67
77893;BME280;67087;50.094;14.338;2023-05-10T03:41:00;97545.47;;;25.05;26.50
77893;BME280;67087;50.094;14.338;2023-05-10T03:43:26;97545.01;;;25.08;26.44
77893;BME280;67087;50.094;14.338;2023-05-10T03:45:51;97546.92;;;24.81;26.46
77893;BME280;67087;50.094;14.338;2023-05-10T03:48:16;97550.16;;;24.76;26.65
77893;BME280;67087;50.094;14.338;2023-05-10T03:50:41;97552.73;;;25.11;26.49
77893;BME280;67087;50.094;14.338;2023-05-10T03:53:07;97552.12;;;24.58;26.56
77893;BME280;67087;50.094;14.338;2023-05-10T03:55:31;97547.28;;;25.10;26.53
77893;BME280;67087;50.094;14.338;2023-05-10T03:57:56;97546.54;;;25.16;26.46
77893;BME280;67087;50.094;14.338;2023-05-10T04:00:22;97541.64;;;25.12;26.51
77893;BME280;67087;50.094;14.338;2023-05-10T04:02:47;97545.24;;;24.90;26.72
77893;BME280;67087;50.094;14.338;2023-05-10T04:05:12;97549.24;;;24.69;26.64
77893;BME280;67087;50.094;14.338;2023-05-10T04:07:37;97545.30;;;25.00;26.59
77893;BME280;67087;50.094;14.338;2023-05-10T04:10:03;97545.35;;;25.19;26.69
77893;BME280;67087;50.094;14.338;2023-05-10T04:12:27;97547.11;;;25.01;26.57
77893;BME280;67087;50.094;14.338;2023-05-10T04:14:52;97546.13;;;25.00;26.56
77893;BME280;67087;50.094;14.338;2023-05-10T04:17:18;97547.57;;;24.80;26.61
77893;BME280;67087;50.094;14.338;2023-05-10T04:19:43;97548.45;;;25.00;26.59
77893;BME280;67087;50.094;14.338;2023-05-10T04:22:08;97546.88;;;24.74;26.57
77893;BME280;67087;50.094;14.338;2023-05-10T04:24:33;97547.63;;;24.86;26.48
77893;BME280;67087;50.094;14.338;2023-05-10T04:26:58;97545.96;;;25.03;26.55
77893;BME280;67087;50.094;14.338;2023-05-10T04:29:23;97545.46;;;25.28;26.61
77893;BME280;67087;50.094;14.338;2023-05-10T04:31:48;97541.76;;;25.30;26.53
77893;BME280;67087;50.094;14.338;2023-05-10T04:34:13;97540.71;;;24.76;26.61
77893;BME280;67087;50.094;14.338;2023-05-10T04:36:39;97544.34;;;25.02;26.61
77893;BME280;67087;50.094;14.338;2023-05-10T04:39:04;97543.71;;;25.08;26.81
77893;BME280;67087;50.094;14.338;2023-05-10T04:41:29;97544.19;;;24.91;27.00
77893;BME280;67087;50.094;14.338;2023-05-10T04:43:54;97541.07;;;25.11;26.66
77893;BME280;67087;50.094;14.338;2023-05-10T04:46:19;97546.07;;;25.18;26.53
77893;BME280;67087;50.094;14.338;2023-05-10T04:48:44;97541.72;;;25.14;26.53
77893;BME280;67087;50.094;14.338;2023-05-10T04:51:10;97539.65;;;24.90;26.37
77893;BME280;67087;50.094;14.338;2023-05-10T04:53:34;97542.65;;;25.12;27.04
77893;BME280;67087;50.094;14.338;2023-05-10T04:56:00;97540.07;;;25.69;26.68
77893;BME280;67087;50.094;14.338;2023-05-10T04:58:25;97539.26;;;25.21;26.97
77893;BME280;67087;50.094;14.338;2023-05-10T05:00:50;97541.55;;;25.95;26.30
77893;BME280;67087;50.094;14.338;2023-05-10T05:03:16;97540.40;;;25.48;27.58
77893;BME280;67087;50.094;14.338;2023-05-10T05:05:41;97537.62;;;25.40;28.09
77893;BME280;67087;50.094;14.338;2023-05-10T05:08:06;97540.89;;;25.60;27.31
77893;BME280;67087;50.094;14.338;2023-05-10T05:10:31;97540.82;;;25.63;27.88
77893;BME280;67087;50.094;14.338;2023-05-10T05:12:57;97544.35;;;25.73;28.04
77893;BME280;67087;50.094;14.338;2023-05-10T05:15:22;97543.28;;;25.42;28.27
77893;BME280;67087;50.094;14.338;2023-05-10T05:17:47;97546.27;;;25.75;27.60
77893;BME280;67087;50.094;14.338;2023-05-10T05:20:12;97545.73;;;25.92;27.34
77893;BME280;67087;50.094;14.338;2023-05-10T05:22:37;97547.69;;;26.01;27.79
77893;BME280;67087;50.094;14.338;2023-05-10T05:25:04;97551.01;;;26.30;27.75
77893;BME280;67087;50.094;14.338;2023-05-10T05:27:27;97555.29;;;25.81;27.59
77893;BME280;67087;50.094;14.338;2023-05-10T05:29:53;97553.88;;;25.84;27.85
77893;BME280;67087;50.094;14.338;2023-05-10T05:32:18;97553.76;;;25.46;29.07
77893;BME280;67087;50.094;14.338;2023-05-10T05:34:44;97552.91;;;25.72;28.91
77893;BME280;67087;50.094;14.338;2023-05-10T05:37:13;97552.91;;;25.15;28.64
77893;BME280;67087;50.094;14.338;2023-05-10T05:39:36;97558.91;;;25.84;27.91
77893;BME280;67087;50.094;14.338;2023-05-10T05:42:00;97557.46;;;25.84;28.04
77893;BME280;67087;50.094;14.338;2023-05-10T05:44:25;97556.32;;;26.10;27.65
77893;BME280;67087;50.094;14.338;2023-05-10T05:46:50;97558.08;;;25.38;27.57
77893;BME280;67087;50.094;14.338;2023-05-10T05:49:15;97558.42;;;25.50;26.22
77893;BME280;67087;50.094;14.338;2023-05-10T05:51:40;97554.17;;;25.61;26.95
77893;BME280;67087;50.094;14.338;2023-05-10T05:54:06;97552.56;;;25.28;26.36
77893;BME280;67087;50.094;14.338;2023-05-10T05:56:31;97549.52;;;25.56;26.36
77893;BME280;67087;50.094;14.338;2023-05-10T05:58:56;97554.61;;;25.51;26.53
77893;BME280;67087;50.094;14.338;2023-05-10T06:01:21;97551.52;;;25.42;24.55
77893;BME280;67087;50.094;14.338;2023-05-10T06:03:46;97551.79;;;25.37;25.68
77893;BME280;67087;50.094;14.338;2023-05-10T06:06:11;97553.40;;;25.16;26.32
77893;BME280;67087;50.094;14.338;2023-05-10T06:08:37;97557.01;;;25.66;25.19
77893;BME280;67087;50.094;14.338;2023-05-10T06:11:02;97552.20;;;25.65;25.06
77893;BME280;67087;50.094;14.338;2023-05-10T06:13:27;97554.74;;;25.59;25.02
77893;BME280;67087;50.094;14.338;2023-05-10T06:15:53;97553.95;;;25.45;24.42
77893;BME280;67087;50.094;14.338;2023-05-10T06:18:18;97552.66;;;24.99;25.16
77893;BME280;67087;50.094;14.338;2023-05-10T06:20:43;97551.69;;;25.42;24.11
77893;BME280;67087;50.094;14.338;2023-05-10T06:23:08;97551.14;;;24.69;23.83
77893;BME280;67087;50.094;14.338;2023-05-10T06:25:33;97554.11;;;25.31;24.66
77893;BME280;67087;50.094;14.338;2023-05-10T06:27:58;97556.15;;;25.11;25.23
77893;BME280;67087;50.094;14.338;2023-05-10T06:30:24;97551.27;;;25.03;25.68
77893;BME280;67087;50.094;14.338;2023-05-10T06:32:48;97551.92;;;25.21;25.39
77893;BME280;67087;50.094;14.338;2023-05-10T06:35:14;97559.15;;;24.88;25.97
77893;BME280;67087;50.094;14.338;2023-05-10T06:37:39;97556.46;;;25.07;25.63
77893;BME280;67087;50.094;14.338;2023-05-10T06:40:06;97559.67;;;25.16;24.59
77893;BME280;67087;50.094;14.338;2023-05-10T06:42:29;97557.39;;;25.17;25.24
77893;BME280;67087;50.094;14.338;2023-05-10T06:44:54;97560.04;;;25.50;24.97
77893;BME280;67087;50.094;14.338;2023-05-10T06:47:19;97559.26;;;25.29;24.88
77893;BME280;67087;50.094;14.338;2023-05-10T06:49:44;97560.20;;;25.50;25.18
77893;BME280;67087;50.094;14.338;2023-05-10T06:52:10;97555.51;;;25.23;24.93
77893;BME280;67087;50.094;14.338;2023-05-10T06:54:35;97558.25;;;24.95;25.19
77893;BME280;67087;50.094;14.338;2023-05-10T06:57:00;97558.25;;;25.34;25.19
77893;BME280;67087;50.094;14.338;2023-05-10T06:59:25;97556.54;;;25.32;24.10
77893;BME280;67087;50.094;14.338;2023-05-10T07:01:50;97557.33;;;25.23;25.04
77893;BME280;67087;50.094;14.338;2023-05-10T07:04:15;97554.89;;;24.91;26.27
77893;BME280;67087;50.094;14.338;2023-05-10T07:06:41;97560.14;;;25.64;24.72
77893;BME280;67087;50.094;14.338;2023-05-10T07:09:06;97555.21;;;24.74;25.20
77893;BME280;67087;50.094;14.338;2023-05-10T07:11:31;97557.67;;;25.80;25.55
77893;BME280;67087;50.094;14.338;2023-05-10T07:13:56;97556.19;;;25.56;25.03
77893;BME280;67087;50.094;14.338;2023-05-10T07:16:21;97551.53;;;25.70;24.18
77893;BME280;67087;50.094;14.338;2023-05-10T07:18:47;97552.38;;;25.75;24.50
77893;BME280;67087;50.094;14.338;2023-05-10T07:21:12;97548.99;;;25.29;26.83
77893;BME280;67087;50.094;14.338;2023-05-10T07:23:38;97550.15;;;25.60;27.89
77893;BME280;67087;50.094;14.338;2023-05-10T07:26:04;97550.88;;;25.81;27.34
77893;BME280;67087;50.094;14.338;2023-05-10T07:28:28;97548.69;;;25.57;27.30
77893;BME280;67087;50.094;14.338;2023-05-10T07:30:54;97548.75;;;25.32;28.62
77893;BME280;67087;50.094;14.338;2023-05-10T07:33:19;97544.88;;;25.58;27.92
77893;BME280;67087;50.094;14.338;2023-05-10T07:35:44;97546.87;;;26.07;27.98
77893;BME280;67087;50.094;14.338;2023-05-10T07:38:09;97550.55;;;25.49;28.19
77893;BME280;67087;50.094;14.338;2023-05-10T07:40:35;97548.31;;;25.92;28.47
77893;BME280;67087;50.094;14.338;2023-05-10T07:43:01;97550.62;;;25.81;28.49
77893;BME280;67087;50.094;14.338;2023-05-10T07:45:27;97550.87;;;25.48;28.70
77893;BME280;67087;50.094;14.338;2023-05-10T07:47:52;97547.60;;;25.62;29.13
77893;BME280;67087;50.094;14.338;2023-05-10T07:50:17;97547.31;;;25.48;29.50
77893;BME280;67087;50.094;14.338;2023-05-10T07:52:43;97545.67;;;25.99;29.39
77893;BME280;67087;50.094;14.338;2023-05-10T07:55:09;97543.77;;;25.50;29.28
77893;BME280;67087;50.094;14.338;2023-05-10T07:57:34;97547.79;;;26.17;29.90
77893;BME280;67087;50.094;14.338;2023-05-10T07:59:59;97545.08;;;26.35;29.39
77893;BME280;67087;50.094;14.338;2023-05-10T08:02:25;97544.27;;;25.68;29.89
77893;BME280;67087;50.094;14.338;2023-05-10T08:04:50;97551.15;;;26.16;29.31
77893;BME280;67087;50.094;14.338;2023-05-10T08:07:15;97548.51;;;25.67;28.50
77893;BME280;67087;50.094;14.338;2023-05-10T08:09:40;97551.03;;;25.67;26.47
77893;BME280;67087;50.094;14.338;2023-05-10T08:12:06;97550.87;;;25.71;25.92
77893;BME280;67087;50.094;14.338;2023-05-10T08:14:31;97551.22;;;25.50;25.65
77893;BME280;67087;50.094;14.338;2023-05-10T08:16:56;97553.12;;;25.70;25.84
77893;BME280;67087;50.094;14.338;2023-05-10T08:19:21;97552.64;;;25.04;26.26
77893;BME280;67087;50.094;14.338;2023-05-10T08:21:46;97550.34;;;25.25;26.07
77893;BME280;67087;50.094;14.338;2023-05-10T08:24:12;97551.21;;;25.07;24.93
77893;BME280;67087;50.094;14.338;2023-05-10T08:26:37;97551.34;;;25.50;23.80
77893;BME280;67087;50.094;14.338;2023-05-10T08:29:03;97554.63;;;25.28;23.84
77893;BME280;67087;50.094;14.338;2023-05-10T08:31:28;97557.55;;;25.39;23.86
77893;BME280;67087;50.094;14.338;2023-05-10T08:33:53;97556.72;;;25.36;23.86
77893;BME280;67087;50.094;14.338;2023-05-10T08:36:19;97557.39;;;25.36;23.30
77893;BME280;67087;50.094;14.338;2023-05-10T08:38:44;97555.89;;;25.48;22.77
77893;BME280;67087;50.094;14.338;2023-05-10T08:41:10;97553.04;;;24.63;23.67
77893;BME280;67087;50.094;14.338;2023-05-10T08:43:36;97553.26;;;25.21;23.52
77893;BME280;67087;50.094;14.338;2023-05-10T08:46:00;97549.59;;;25.36;23.21
77893;BME280;67087;50.094;14.338;2023-05-10T08:48:24;97558.86;;;25.10;22.29
77893;BME280;67087;50.094;14.338;2023-05-10T08:50:52;97556.33;;;25.55;22.33
77893;BME280;67087;50.094;14.338;2023-05-10T08:53:16;97560.33;;;25.34;22.35
77893;BME280;67087;50.094;14.338;2023-05-10T08:55:40;97557.54;;;25.19;22.68
77893;BME280;67087;50.094;14.338;2023-05-10T08:58:06;97555.20;;;25.13;22.11
77893;BME280;67087;50.094;14.338;2023-05-10T09:00:30;97551.39;;;25.06;21.78
77893;BME280;67087;50.094;14.338;2023-05-10T09:02:55;97551.73;;;25.37;22.29
77893;BME280;67087;50.094;14.338;2023-05-10T09:05:20;97550.41;;;24.78;21.91
77893;BME280;67087;50.094;14.338;2023-05-10T09:07:46;97553.13;;;25.30;22.01
77893;BME280;67087;50.094;14.338;2023-05-10T09:10:11;97550.91;;;24.93;21.78
77893;BME280;67087;50.094;14.338;2023-05-10T09:12:36;97550.54;;;24.65;22.53
77893;BME280;67087;50.094;14.338;2023-05-10T09:15:02;97549.23;;;25.22;22.02
77893;BME280;67087;50.094;14.338;2023-05-10T09:17:27;97549.47;;;25.09;22.09
77893;BME280;67087;50.094;14.338;2023-05-10T09:19:58;97557.15;;;25.43;21.42
77893;BME280;67087;50.094;14.338;2023-05-10T09:22:17;97556.58;;;24.94;21.95
77893;BME280;67087;50.094;14.338;2023-05-10T09:24:42;97549.92;;;24.51;22.58
77893;BME280;67087;50.094;14.338;2023-05-10T09:27:07;97558.66;;;24.32;22.68
77893;BME280;67087;50.094;14.338;2023-05-10T09:29:39;97557.34;;;25.13;22.39
77893;BME280;67087;50.094;14.338;2023-05-10T09:31:57;97559.34;;;25.17;22.31
77893;BME280;67087;50.094;14.338;2023-05-10T09:34:28;97558.48;;;25.00;22.41
77893;BME280;67087;50.094;14.338;2023-05-10T09:36:52;97559.59;;;25.06;22.35
77893;BME280;67087;50.094;14.338;2023-05-10T09:39:12;97558.00;;;25.01;22.38
77893;BME280;67087;50.094;14.338;2023-05-10T09:41:38;97557.43;;;25.26;22.18
77893;BME280;67087;50.094;14.338;2023-05-10T09:44:04;97557.63;;;24.77;22.12
77893;BME280;67087;50.094;14.338;2023-05-10T09:46:28;97555.11;;;24.91;21.88
77893;BME280;67087;50.094;14.338;2023-05-10T09:48:54;97557.08;;;24.89;21.64
77893;BME280;67087;50.094;14.338;2023-05-10T09:51:19;97552.09;;;24.90;21.70
77893;BME280;67087;50.094;14.338;2023-05-10T09:53:44;97554.97;;;24.76;22.07
77893;BME280;67087;50.094;14.338;2023-05-10T09:56:09;97555.81;;;24.55;22.31
77893;BME280;67087;50.094;14.338;2023-05-10T09:58:36;97555.66;;;25.02;22.21
77893;BME280;67087;50.094;14.338;2023-05-10T10:00:59;97553.60;;;25.43;21.95
77893;BME280;67087;50.094;14.338;2023-05-10T10:03:25;97548.84;;;25.39;21.74
77893;BME280;67087;50.094;14.338;2023-05-10T10:05:50;97549.39;;;25.03;21.90
77893;BME280;67087;50.094;14.338;2023-05-10T10:08:15;97547.71;;;24.80;22.48
77893;BME280;67087;50.094;14.338;2023-05-10T10:10:41;97543.79;;;24.79;22.63
77893;BME280;67087;50.094;14.338;2023-05-10T10:13:07;97549.40;;;24.70;22.36
77893;BME280;67087;50.094;14.338;2023-05-10T10:15:30;97542.80;;;24.58;22.48
77893;BME280;67087;50.094;14.338;2023-05-10T10:17:55;97541.08;;;24.59;22.58
77893;BME280;67087;50.094;14.338;2023-05-10T10:20:22;97543.10;;;24.92;22.17
77893;BME280;67087;50.094;14.338;2023-05-10T10:22:47;97536.55;;;24.64;22.67
77893;BME280;67087;50.094;14.338;2023-05-10T10:25:14;97537.00;;;24.21;22.82
77893;BME280;67087;50.094;14.338;2023-05-10T10:27:45;97534.75;;;24.80;22.46
77893;BME280;67087;50.094;14.338;2023-05-10T10:30:10;97530.32;;;25.07;22.25
77893;BME280;67087;50.094;14.338;2023-05-10T10:32:33;97534.47;;;25.05;21.80
77893;BME280;67087;50.094;14.338;2023-05-10T10:34:54;97537.25;;;25.21;22.31
77893;BME280;67087;50.094;14.338;2023-05-10T10:37:17;97536.96;;;25.03;21.68
77893;BME280;67087;50.094;14.338;2023-05-10T10:39:42;97532.84;;;24.54;22.05
77893;BME280;67087;50.094;14.338;2023-05-10T10:42:08;97534.15;;;24.43;22.12
77893;BME280;67087;50.094;14.338;2023-05-10T10:44:36;97535.93;;;25.06;22.42
77893;BME280;67087;50.094;14.338;2023-05-10T10:47:04;97535.53;;;24.78;22.42
77893;BME280;67087;50.094;14.338;2023-05-10T10:49:23;97539.20;;;25.28;23.20
77893;BME280;67087;50.094;14.338;2023-05-10T10:54:22;97531.34;;;25.21;22.43
77893;BME280;67087;50.094;14.338;2023-05-10T10:56:38;97529.14;;;25.22;23.17
77893;BME280;67087;50.094;14.338;2023-05-10T10:59:04;97526.14;;;24.96;23.32
77893;BME280;67087;50.094;14.338;2023-05-10T11:01:33;97520.12;;;24.93;23.30
77893;BME280;67087;50.094;14.338;2023-05-10T11:06:28;97515.74;;;24.81;23.50
77893;BME280;67087;50.094;14.338;2023-05-10T11:08:44;97510.19;;;25.37;21.81
77893;BME280;67087;50.094;14.338;2023-05-10T11:11:09;97520.22;;;24.80;22.34
77893;BME280;67087;50.094;14.338;2023-05-10T11:13:38;97515.80;;;25.12;22.10
77893;BME280;67087;50.094;14.338;2023-05-10T11:16:11;97515.73;;;24.73;22.68
77893;BME280;67087;50.094;14.338;2023-05-10T11:18:27;97514.60;;;24.94;22.76
77893;BME280;67087;50.094;14.338;2023-05-10T11:20:51;97515.60;;;25.01;22.38
77893;BME280;67087;50.094;14.338;2023-05-10T11:23:16;97514.03;;;24.96;22.10
77893;BME280;67087;50.094;14.338;2023-05-10T11:25:42;97517.58;;;24.88;22.28
77893;BME280;67087;50.094;14.338;2023-05-10T11:28:07;97515.99;;;24.34;22.41
77893;BME280;67087;50.094;14.338;2023-05-10T11:30:31;97509.84;;;25.46;22.64
77893;BME280;67087;50.094;14.338;2023-05-10T11:32:56;97512.55;;;24.89;22.60
77893;BME280;67087;50.094;14.338;2023-05-10T11:35:22;97512.26;;;25.42;21.95
77893;BME280;67087;50.094;14.338;2023-05-10T11:37:48;97511.07;;;25.04;22.49
77893;BME280;67087;50.094;14.338;2023-05-10T11:40:12;97509.89;;;25.15;21.87
77893;BME280;67087;50.094;14.338;2023-05-10T11:42:37;97514.36;;;25.08;21.96
77893;BME280;67087;50.094;14.338;2023-05-10T11:45:02;97514.95;;;24.80;22.34
77893;BME280;67087;50.094;14.338;2023-05-10T11:47:27;97514.59;;;25.16;22.50
77893;BME280;67087;50.094;14.338;2023-05-10T11:49:53;97514.06;;;25.71;21.84
77893;BME280;67087;50.094;14.338;2023-05-10T11:52:18;97511.17;;;25.14;21.86
77893;BME280;67087;50.094;14.338;2023-05-10T11:54:45;97504.22;;;24.83;22.46
77893;BME280;67087;50.094;14.338;2023-05-10T11:57:08;97509.98;;;24.27;22.19
77893;BME280;67087;50.094;14.338;2023-05-10T11:59:33;97515.69;;;24.93;21.97
77893;BME280;67087;50.094;14.338;2023-05-10T12:01:58;97514.95;;;25.28;21.53
77893;BME280;67087;50.094;14.338;2023-05-10T12:04:23;97512.75;;;25.03;21.91
77893;BME280;67087;50.094;14.338;2023-05-10T12:06:49;97514.94;;;24.85;22.19
77893;BME280;67087;50.094;14.338;2023-05-10T12:09:14;97515.58;;;25.07;21.97
77893;BME280;67087;50.094;14.338;2023-05-10T12:11:40;97514.33;;;25.06;22.30
77893;BME280;67087;50.094;14.338;2023-05-10T12:14:05;97518.31;;;24.91;22.33
77893;BME280;67087;50.094;14.338;2023-05-10T12:16:29;97516.43;;;25.13;22.43
77893;BME280;67087;50.094;14.338;2023-05-10T12:18:56;97520.40;;;24.91;22.58
77893;BME280;67087;50.094;14.338;2023-05-10T12:21:20;97526.24;;;24.89;22.59
77893;BME280;67087;50.094;14.338;2023-05-10T12:23:46;97522.78;;;24.89;22.41
77893;BME280;67087;50.094;14.338;2023-05-10T12:26:10;97527.88;;;24.53;22.31
77893;BME280;67087;50.094;14.338;2023-05-10T12:28:35;97526.67;;;25.34;22.21
77893;BME280;67087;50.094;14.338;2023-05-10T12:31:01;97530.63;;;25.27;22.15
77893;BME280;67087;50.094;14.338;2023-05-10T12:33:25;97531.05;;;25.34;22.09
77893;BME280;67087;50.094;14.338;2023-05-10T12:35:52;97532.46;;;25.27;22.11
77893;BME280;67087;50.094;14.338;2023-05-10T12:38:26;97530.12;;;25.58;21.91
77893;BME280;67087;50.094;14.338;2023-05-10T12:40:40;97529.21;;;25.06;22.22
77893;BME280;67087;50.094;14.338;2023-05-10T12:43:06;97530.52;;;25.29;22.27
77893;BME280;67087;50.094;14.338;2023-05-10T12:45:31;97531.09;;;25.07;22.15